Hauptseite
METAR-TAF:

METAR-TAF

Flughäfen :

Flughafen Upington

Upington, Südafrika

Breite: 28-24S, Länge: 021-16E, Höhe: 839 m

Beobachtung

Neuester Wetterbericht von vor 19 Minuten, um 18:00 UTC
Wind 6 kt aus Süd/Südwest
Temperatur 30°C
Luftfeuchtigkeit 22%
Luftdruck 1011 hPa
Sichtweite 10 km oder mehr
keine Wolken unter 1500 m und keine Kumulonimbus oder Gewitterwolken

METAR: FAUP 251800Z 20006KT CAVOK 30/06 Q1011 NOSIG

Zeit: 20:19 (18:19 UTC)

Prognose

Neuester Wetterbericht von vor 2 Stunden und 19 Minuten, um 16:00 UTC
Gültige Prognose vom 25 um 18 UTC bis 26 um 18 UTC
Wind 8 kt aus West/Südwest
Sichtweite 10 km oder mehr
keine Wolken unter 1500 m und keine Kumulonimbus oder Gewitterwolken

TAF: FAUP 251600Z 2518/2618 24008KT CAVOK TX32/2614Z TN17/2604Z

Wetterbeobachtungen und Prognosen von mehr als 4000 Flughäfen (METAR und TAF Bericht).

Die verfügbaren Stationen werden durch gelbe und rote Markierungen auf der Karte dargestellt.

Führen Sie die Maus auf sie, um den Namen der Station zu sehen.

Darauf klicken, um die Beobachtung von Wetterbeobachtungen und Prognosen zu sehen.

Um die Karte zu ändern : klicken Sie auf den grünen Tasten mit einem schwarzen Kreuz Zum Vergrößern, auf den grünen Button mit einem Gedankenstrich zu verkleinern, oder auf die grünen Pfeile für benachbarte Karten.


METAR-TAF: